createdAt,value
2019-02-19T00:02:56.445Z,70.16
2019-02-19T00:07:04.680Z,70.73
2019-02-19T00:11:12.669Z,70.68
2019-02-19T00:15:21.096Z,71.33
2019-02-19T00:19:29.328Z,70.90
2019-02-19T00:23:37.372Z,70.87
2019-02-19T00:27:45.155Z,70.83
2019-02-19T00:31:53.263Z,71.17
2019-02-19T00:36:01.493Z,71.65
2019-02-19T00:40:09.212Z,71.14
2019-02-19T00:44:17.500Z,72.26
2019-02-19T00:48:25.346Z,71.53
2019-02-19T00:52:32.932Z,71.05
2019-02-19T00:56:41.663Z,71.42
2019-02-19T01:00:49.864Z,71.30
2019-02-19T01:04:57.788Z,71.50
2019-02-19T01:09:08.950Z,71.07
2019-02-19T01:13:16.678Z,71.50
2019-02-19T01:17:24.493Z,72.88
2019-02-19T01:21:32.812Z,73.45
2019-02-19T01:25:40.542Z,72.99
2019-02-19T01:29:48.139Z,72.99
2019-02-19T01:33:56.475Z,72.40
2019-02-19T01:38:04.291Z,72.22
2019-02-19T01:42:12.486Z,72.15
2019-02-19T01:46:20.411Z,72.37
2019-02-19T01:50:28.266Z,72.44
2019-02-19T01:54:36.196Z,72.33
2019-02-19T01:58:44.444Z,72.28
2019-02-19T02:02:52.295Z,72.77
2019-02-19T02:07:00.458Z,72.99
2019-02-19T02:11:08.795Z,72.63
2019-02-19T02:15:16.618Z,72.35
2019-02-19T02:19:24.914Z,72.71
2019-02-19T02:23:32.941Z,72.92
2019-02-19T02:27:41.782Z,72.49
2019-02-19T02:31:50.188Z,72.36
2019-02-19T02:35:58.024Z,72.60
2019-02-19T02:40:06.141Z,73.05
2019-02-19T02:44:14.333Z,73.20
2019-02-19T02:48:21.799Z,73.11
2019-02-19T02:52:29.880Z,72.99
2019-02-19T02:56:37.803Z,72.92
2019-02-19T03:00:45.691Z,72.75
2019-02-19T03:04:53.608Z,73.07
2019-02-19T03:09:01.913Z,73.54
2019-02-19T03:13:11.081Z,73.82
2019-02-19T03:17:19.262Z,73.57
2019-02-19T03:21:27.085Z,74.13
2019-02-19T03:25:35.243Z,74.52
2019-02-19T03:29:43.641Z,75.42
2019-02-19T03:33:51.468Z,74.80
2019-02-19T03:38:01.389Z,76.31
2019-02-19T03:42:09.729Z,75.69
2019-02-19T03:46:17.543Z,75.14
2019-02-19T03:50:25.755Z,75.06
2019-02-19T03:54:33.588Z,75.44
2019-02-19T03:58:41.116Z,75.88
2019-02-19T04:02:49.272Z,75.78
2019-02-19T04:06:57.096Z,75.55
2019-02-19T04:11:04.844Z,76.37
2019-02-19T04:15:13.313Z,75.84
2019-02-19T04:19:20.984Z,75.62
2019-02-19T04:23:28.907Z,75.10
2019-02-19T04:27:37.039Z,75.46
2019-02-19T04:31:44.887Z,75.30
2019-02-19T04:35:54.162Z,76.38
2019-02-19T04:40:02.114Z,77.03
2019-02-19T04:44:12.093Z,76.37
2019-02-19T04:48:20.777Z,77.12
2019-02-19T04:52:28.842Z,77.05
2019-02-19T04:56:36.454Z,77.74
2019-02-19T05:00:44.384Z,77.61
2019-02-19T05:04:52.487Z,77.36
2019-02-19T05:09:00.215Z,77.13
2019-02-19T05:13:08.089Z,76.88
2019-02-19T05:17:16.461Z,76.48
2019-02-19T05:21:24.333Z,75.92
2019-02-19T05:25:33.564Z,76.89
2019-02-19T05:29:41.579Z,76.13
2019-02-19T05:33:49.311Z,76.00
2019-02-19T05:37:57.621Z,76.24
2019-02-19T05:42:06.562Z,76.55
2019-02-19T05:46:14.364Z,77.02
2019-02-19T05:50:22.597Z,76.33
2019-02-19T05:54:30.387Z,76.29
2019-02-19T05:58:38.135Z,76.91
2019-02-19T06:02:46.038Z,76.74
2019-02-19T06:06:53.924Z,76.62
2019-02-19T06:11:01.853Z,77.05
2019-02-19T06:15:10.341Z,76.59
2019-02-19T06:19:18.155Z,76.83
2019-02-19T06:23:26.301Z,76.80
2019-02-19T06:27:34.369Z,77.09
2019-02-19T06:31:42.119Z,76.04
2019-02-19T06:35:50.154Z,76.19
2019-02-19T06:39:58.278Z,76.31
2019-02-19T06:44:06.417Z,76.23
2019-02-19T06:48:14.662Z,76.43
2019-02-19T06:52:22.933Z,76.77
2019-02-19T06:56:30.683Z,76.00
2019-02-19T07:00:39.377Z,75.86
2019-02-19T07:04:51.112Z,75.87
2019-02-19T07:08:59.052Z,75.66
2019-02-19T07:13:06.873Z,74.69
2019-02-19T07:17:16.563Z,74.37
2019-02-19T07:21:24.438Z,75.40
2019-02-19T07:25:32.908Z,74.36
2019-02-19T07:29:40.668Z,74.10
2019-02-19T07:33:48.561Z,70.48
2019-02-19T07:37:56.702Z,69.94
2019-02-19T07:42:04.482Z,69.28
2019-02-19T07:46:12.434Z,69.28
2019-02-19T07:50:21.209Z,68.83
2019-02-19T07:54:30.610Z,69.15
2019-02-19T07:58:39.688Z,69.02
2019-02-19T08:02:48.322Z,66.75
2019-02-19T08:06:56.027Z,66.74
2019-02-19T08:11:04.103Z,65.80
2019-02-19T08:15:12.072Z,64.70
2019-02-19T08:19:20.360Z,64.55
2019-02-19T08:23:29.898Z,65.20
2019-02-19T08:27:37.713Z,64.57
2019-02-19T08:31:45.932Z,62.06
2019-02-19T08:35:53.848Z,60.47
2019-02-19T08:40:01.504Z,58.61
2019-02-19T08:44:09.510Z,57.85
2019-02-19T08:48:17.489Z,57.16
2019-02-19T08:52:25.282Z,56.19
2019-02-19T08:56:33.283Z,55.75
2019-02-19T09:00:41.533Z,55.94
2019-02-19T09:04:49.240Z,54.94
2019-02-19T09:08:56.929Z,55.19
2019-02-19T09:13:04.778Z,54.71
2019-02-19T09:17:12.629Z,53.37
2019-02-19T09:21:21.071Z,54.00
2019-02-19T09:25:28.798Z,53.25
2019-02-19T09:29:36.390Z,52.16
2019-02-19T09:33:44.294Z,51.44
2019-02-19T09:37:52.100Z,51.24
2019-02-19T09:41:59.842Z,51.28
2019-02-19T09:46:08.162Z,51.27
2019-02-19T09:50:16.715Z,50.88
2019-02-19T09:54:25.335Z,50.81
2019-02-19T09:58:33.213Z,50.71
2019-02-19T10:02:40.927Z,50.40
2019-02-19T10:06:49.130Z,50.73
2019-02-19T10:10:56.946Z,50.73
2019-02-19T10:15:05.089Z,49.72
2019-02-19T10:19:13.277Z,50.53
2019-02-19T10:23:21.277Z,49.73
2019-02-19T10:27:29.027Z,50.71
2019-02-19T10:31:36.821Z,49.93
2019-02-19T10:35:45.808Z,50.72
2019-02-19T10:39:53.581Z,51.34
2019-02-19T10:44:01.740Z,51.66
2019-02-19T10:48:09.506Z,50.96
2019-02-19T10:52:17.622Z,51.81
2019-02-19T10:56:25.645Z,51.74
2019-02-19T11:00:33.451Z,52.41
2019-02-19T11:04:41.360Z,52.32
2019-02-19T11:08:49.668Z,51.47
2019-02-19T11:12:57.274Z,52.27
2019-02-19T11:17:05.180Z,52.54
2019-02-19T11:21:19.344Z,53.16
2019-02-19T11:25:22.701Z,53.55
2019-02-19T11:29:30.374Z,54.63
2019-02-19T11:33:38.283Z,53.61
2019-02-19T11:37:46.086Z,56.33
2019-02-19T11:41:54.196Z,55.38
2019-02-19T11:46:01.798Z,56.39
2019-02-19T11:50:09.921Z,55.25
2019-02-19T11:54:18.040Z,56.46
2019-02-19T11:58:25.642Z,56.70
2019-02-19T12:02:33.811Z,56.14
2019-02-19T12:06:41.927Z,56.25
2019-02-19T12:10:49.689Z,57.29
2019-02-19T12:14:57.617Z,58.64
2019-02-19T12:19:05.804Z,57.60
2019-02-19T12:23:13.709Z,57.41
2019-02-19T12:27:21.733Z,56.83
2019-02-19T12:31:29.535Z,56.08
2019-02-19T12:35:37.572Z,57.09
2019-02-19T12:39:45.390Z,57.47
2019-02-19T12:43:53.371Z,55.82
2019-02-19T12:48:02.744Z,56.53
2019-02-19T12:52:10.956Z,57.98
2019-02-19T12:56:18.771Z,58.28
2019-02-19T13:00:26.590Z,58.87
2019-02-19T13:04:34.391Z,60.12
2019-02-19T13:08:42.444Z,59.85
2019-02-19T13:12:50.632Z,59.67
2019-02-19T13:16:58.426Z,59.75
2019-02-19T13:21:06.857Z,59.87
2019-02-19T13:25:13.853Z,59.76
2019-02-19T13:29:21.595Z,60.69
2019-02-19T13:33:29.774Z,61.17
2019-02-19T13:37:38.618Z,60.62
2019-02-19T13:41:46.233Z,60.71
2019-02-19T13:45:54.023Z,62.00
2019-02-19T13:50:01.738Z,60.42
2019-02-19T13:54:14.353Z,62.75
2019-02-19T13:58:22.417Z,62.63
2019-02-19T14:02:30.282Z,63.24
2019-02-19T14:06:38.483Z,63.16
2019-02-19T14:10:46.362Z,61.26
2019-02-19T14:14:58.939Z,62.23
2019-02-19T14:19:21.131Z,62.90
2019-02-19T14:23:43.571Z,64.16
2019-02-19T14:28:09.105Z,64.96
2019-02-19T14:32:35.623Z,65.06
2019-02-19T14:37:07.021Z,65.79
2019-02-19T14:41:40.058Z,66.44
2019-02-19T14:46:15.602Z,66.31
2019-02-19T14:50:41.306Z,66.70
2019-02-19T14:55:06.849Z,67.75
2019-02-19T14:59:33.699Z,68.05
2019-02-19T15:04:00.826Z,67.81
2019-02-19T15:08:26.071Z,70.91
2019-02-19T15:13:05.269Z,71.37
2019-02-19T15:17:30.895Z,71.51
2019-02-19T15:21:55.263Z,70.92
2019-02-19T15:26:26.658Z,71.61
2019-02-19T15:30:59.833Z,71.79
2019-02-19T15:35:29.756Z,71.61
2019-02-19T15:39:47.745Z,72.14
2019-02-19T15:44:23.873Z,72.27
2019-02-19T15:48:58.307Z,72.57
2019-02-19T15:53:43.301Z,72.58
2019-02-19T15:58:19.109Z,72.97
2019-02-19T16:02:35.223Z,72.99
2019-02-19T16:06:59.968Z,72.69
2019-02-19T16:11:16.956Z,72.60
2019-02-19T16:15:51.992Z,72.95
2019-02-19T16:20:05.902Z,72.82
2019-02-19T16:24:51.112Z,72.70
2019-02-19T16:29:25.385Z,72.77
2019-02-19T16:33:44.048Z,73.06
2019-02-19T16:38:09.966Z,72.58
2019-02-19T16:42:46.366Z,73.01
2019-02-19T16:47:21.868Z,72.95
2019-02-19T16:51:43.447Z,73.15
2019-02-19T16:56:01.390Z,73.31
2019-02-19T17:00:22.889Z,73.22
2019-02-19T17:04:48.321Z,73.18
2019-02-19T17:09:06.408Z,73.58
2019-02-19T17:13:33.843Z,73.79
2019-02-19T17:18:09.768Z,73.65
2019-02-19T17:22:34.642Z,73.09
2019-02-19T17:27:19.878Z,73.71
2019-02-19T17:31:40.990Z,73.00
2019-02-19T17:36:06.730Z,73.66
2019-02-19T17:40:24.231Z,73.22
2019-02-19T17:44:53.888Z,73.09
2019-02-19T17:49:10.445Z,73.20
2019-02-19T17:53:43.188Z,73.56
2019-02-19T17:58:16.511Z,73.24
2019-02-19T18:02:44.589Z,73.52
2019-02-19T18:06:59.498Z,73.71
2019-02-19T18:11:15.013Z,73.40
2019-02-19T18:15:45.453Z,73.28
2019-02-19T18:19:53.840Z,73.42
2019-02-19T18:24:01.618Z,73.45
2019-02-19T18:28:09.859Z,73.72
2019-02-19T18:32:17.871Z,73.49
2019-02-19T18:36:25.801Z,73.49
2019-02-19T18:40:34.119Z,73.32
2019-02-19T18:44:42.346Z,73.09
2019-02-19T18:48:50.070Z,73.61
2019-02-19T18:52:58.183Z,73.49
2019-02-19T18:57:06.715Z,73.77
2019-02-19T19:01:15.086Z,73.66
2019-02-19T19:05:23.038Z,74.00
2019-02-19T19:09:31.224Z,73.66
2019-02-19T19:13:38.913Z,73.85
2019-02-19T19:17:46.944Z,74.27
2019-02-19T19:21:54.687Z,74.03
2019-02-19T19:26:02.509Z,74.04
2019-02-19T19:30:11.719Z,73.30
2019-02-19T19:34:19.483Z,74.13
2019-02-19T19:38:27.428Z,74.05
2019-02-19T19:42:35.373Z,73.97
2019-02-19T19:46:43.981Z,74.33
2019-02-19T19:50:51.702Z,73.51
2019-02-19T19:54:59.348Z,74.13
2019-02-19T19:59:07.192Z,73.81
2019-02-19T20:03:15.170Z,74.19
2019-02-19T20:07:23.922Z,74.22
2019-02-19T20:11:36.463Z,73.80
2019-02-19T20:15:44.172Z,74.31
2019-02-19T20:19:52.104Z,74.36
2019-02-19T20:24:00.087Z,74.31
2019-02-19T20:28:09.236Z,73.34
2019-02-19T20:32:17.029Z,74.21
2019-02-19T20:36:25.177Z,73.74
2019-02-19T20:40:35.837Z,74.31
2019-02-19T20:44:44.106Z,74.12
2019-02-19T20:48:52.278Z,74.08
2019-02-19T20:53:01.639Z,74.16
2019-02-19T20:57:09.284Z,74.15
2019-02-19T21:01:17.378Z,74.14
2019-02-19T21:05:25.271Z,74.08
2019-02-19T21:09:43.151Z,74.44
2019-02-19T21:13:42.823Z,74.09
2019-02-19T21:17:50.745Z,74.23
2019-02-19T21:21:58.955Z,73.79
2019-02-19T21:26:07.398Z,74.30
2019-02-19T21:30:15.332Z,74.63
2019-02-19T21:34:23.493Z,74.52
2019-02-19T21:38:31.826Z,74.02
2019-02-19T21:42:39.654Z,74.24
2019-02-19T21:46:47.888Z,74.13
2019-02-19T21:50:55.874Z,74.55
2019-02-19T21:55:04.613Z,74.58
2019-02-19T21:59:14.055Z,74.22
2019-02-19T22:03:21.997Z,74.61
2019-02-19T22:07:29.791Z,74.65
2019-02-19T22:11:37.813Z,74.49
2019-02-19T22:15:45.717Z,74.18
2019-02-19T22:20:02.674Z,74.17
2019-02-19T22:24:03.284Z,73.94
2019-02-19T22:28:12.205Z,73.91
2019-02-19T22:32:20.997Z,74.41
2019-02-19T22:36:28.850Z,74.10
2019-02-19T22:40:36.461Z,74.66
2019-02-19T22:44:44.164Z,74.53
2019-02-19T22:48:52.061Z,74.61
2019-02-19T22:52:59.795Z,74.83
2019-02-19T22:57:07.604Z,74.50
2019-02-19T23:01:23.892Z,74.68
2019-02-19T23:05:33.458Z,74.72
2019-02-19T23:09:41.452Z,74.66
2019-02-19T23:13:49.076Z,74.72
2019-02-19T23:17:57.517Z,74.61
2019-02-19T23:22:05.414Z,74.63
2019-02-19T23:26:13.108Z,74.67
2019-02-19T23:30:21.327Z,73.95
2019-02-19T23:34:29.246Z,74.30
2019-02-19T23:38:37.057Z,74.18
2019-02-19T23:42:45.376Z,74.21
2019-02-19T23:46:53.504Z,73.91
2019-02-19T23:51:01.605Z,73.95
2019-02-19T23:55:09.632Z,73.64
2019-02-19T23:59:17.626Z,73.99
